sensor_id;sensor_type;location;lat;lon;timestamp;P1;durP1;ratioP1;P2;durP2;ratioP2
19814;SDS011;10067;53.092;8.800;2024-02-14T00:01:53;7.97;;;4.90;;
19814;SDS011;10067;53.092;8.800;2024-02-14T00:04:21;12.07;;;5.03;;
19814;SDS011;10067;53.092;8.800;2024-02-14T00:06:47;10.73;;;4.83;;
19814;SDS011;10067;53.092;8.800;2024-02-14T00:09:14;11.70;;;4.93;;
19814;SDS011;10067;53.092;8.800;2024-02-14T00:11:41;10.93;;;4.97;;
19814;SDS011;10067;53.092;8.800;2024-02-14T00:14:07;8.40;;;4.97;;
19814;SDS011;10067;53.092;8.800;2024-02-14T00:16:35;8.90;;;4.90;;
19814;SDS011;10067;53.092;8.800;2024-02-14T00:19:04;14.13;;;5.90;;
19814;SDS011;10067;53.092;8.800;2024-02-14T00:21:30;11.47;;;5.37;;
19814;SDS011;10067;53.092;8.800;2024-02-14T00:23:59;8.60;;;5.40;;
19814;SDS011;10067;53.092;8.800;2024-02-14T00:26:25;7.97;;;5.00;;
19814;SDS011;10067;53.092;8.800;2024-02-14T00:28:51;10.60;;;5.17;;
19814;SDS011;10067;53.092;8.800;2024-02-14T00:31:18;11.80;;;5.40;;
19814;SDS011;10067;53.092;8.800;2024-02-14T00:33:45;11.97;;;6.07;;
19814;SDS011;10067;53.092;8.800;2024-02-14T00:36:12;7.97;;;5.27;;
19814;SDS011;10067;53.092;8.800;2024-02-14T00:38:39;13.20;;;5.80;;
19814;SDS011;10067;53.092;8.800;2024-02-14T00:41:05;11.70;;;6.50;;
19814;SDS011;10067;53.092;8.800;2024-02-14T00:43:31;10.77;;;5.73;;
19814;SDS011;10067;53.092;8.800;2024-02-14T00:45:59;11.37;;;6.00;;
19814;SDS011;10067;53.092;8.800;2024-02-14T00:48:25;8.20;;;5.93;;
19814;SDS011;10067;53.092;8.800;2024-02-14T00:50:53;7.87;;;6.20;;
19814;SDS011;10067;53.092;8.800;2024-02-14T00:53:20;8.70;;;5.63;;
19814;SDS011;10067;53.092;8.800;2024-02-14T00:55:46;7.83;;;6.57;;
19814;SDS011;10067;53.092;8.800;2024-02-14T00:58:13;12.13;;;5.90;;
19814;SDS011;10067;53.092;8.800;2024-02-14T01:00:39;9.30;;;5.87;;
19814;SDS011;10067;53.092;8.800;2024-02-14T01:03:06;15.90;;;6.77;;
19814;SDS011;10067;53.092;8.800;2024-02-14T01:05:32;9.83;;;6.30;;
19814;SDS011;10067;53.092;8.800;2024-02-14T01:08:00;13.03;;;6.80;;
19814;SDS011;10067;53.092;8.800;2024-02-14T01:10:26;7.87;;;6.20;;
19814;SDS011;10067;53.092;8.800;2024-02-14T01:12:52;10.57;;;6.20;;
19814;SDS011;10067;53.092;8.800;2024-02-14T01:15:19;10.83;;;6.93;;
19814;SDS011;10067;53.092;8.800;2024-02-14T01:17:47;12.37;;;6.53;;
19814;SDS011;10067;53.092;8.800;2024-02-14T01:20:13;11.57;;;6.87;;
19814;SDS011;10067;53.092;8.800;2024-02-14T01:22:41;8.57;;;5.67;;
19814;SDS011;10067;53.092;8.800;2024-02-14T01:25:09;9.30;;;6.60;;
19814;SDS011;10067;53.092;8.800;2024-02-14T01:27:36;10.90;;;6.40;;
19814;SDS011;10067;53.092;8.800;2024-02-14T01:30:02;12.17;;;7.07;;
19814;SDS011;10067;53.092;8.800;2024-02-14T01:32:29;8.80;;;6.83;;
19814;SDS011;10067;53.092;8.800;2024-02-14T01:34:56;11.20;;;7.07;;
19814;SDS011;10067;53.092;8.800;2024-02-14T01:37:23;11.27;;;7.07;;
19814;SDS011;10067;53.092;8.800;2024-02-14T01:39:50;8.40;;;6.83;;
19814;SDS011;10067;53.092;8.800;2024-02-14T01:42:17;13.47;;;7.70;;
19814;SDS011;10067;53.092;8.800;2024-02-14T01:44:45;10.10;;;7.27;;
19814;SDS011;10067;53.092;8.800;2024-02-14T01:47:12;16.23;;;8.33;;
19814;SDS011;10067;53.092;8.800;2024-02-14T01:49:39;13.03;;;7.87;;
19814;SDS011;10067;53.092;8.800;2024-02-14T01:52:09;10.67;;;7.33;;
19814;SDS011;10067;53.092;8.800;2024-02-14T01:54:35;10.93;;;8.10;;
19814;SDS011;10067;53.092;8.800;2024-02-14T01:57:02;12.40;;;7.87;;
19814;SDS011;10067;53.092;8.800;2024-02-14T01:59:30;14.10;;;7.93;;
19814;SDS011;10067;53.092;8.800;2024-02-14T02:01:57;10.33;;;7.27;;
19814;SDS011;10067;53.092;8.800;2024-02-14T02:04:23;11.63;;;8.27;;
19814;SDS011;10067;53.092;8.800;2024-02-14T02:06:50;10.90;;;8.13;;
19814;SDS011;10067;53.092;8.800;2024-02-14T02:09:21;9.87;;;7.80;;
19814;SDS011;10067;53.092;8.800;2024-02-14T02:11:48;11.97;;;7.63;;
19814;SDS011;10067;53.092;8.800;2024-02-14T02:14:14;14.53;;;8.73;;
19814;SDS011;10067;53.092;8.800;2024-02-14T02:16:42;16.23;;;9.40;;
19814;SDS011;10067;53.092;8.800;2024-02-14T02:19:09;14.67;;;8.40;;
19814;SDS011;10067;53.092;8.800;2024-02-14T02:21:35;13.03;;;8.67;;
19814;SDS011;10067;53.092;8.800;2024-02-14T02:24:04;18.50;;;9.33;;
19814;SDS011;10067;53.092;8.800;2024-02-14T02:26:30;15.97;;;9.90;;
19814;SDS011;10067;53.092;8.800;2024-02-14T02:28:56;12.67;;;8.57;;
19814;SDS011;10067;53.092;8.800;2024-02-14T02:31:24;14.80;;;9.77;;
19814;SDS011;10067;53.092;8.800;2024-02-14T02:33:51;12.60;;;8.70;;
19814;SDS011;10067;53.092;8.800;2024-02-14T02:36:18;16.97;;;10.13;;
19814;SDS011;10067;53.092;8.800;2024-02-14T02:38:44;16.00;;;9.93;;
19814;SDS011;10067;53.092;8.800;2024-02-14T02:41:12;19.70;;;10.43;;
19814;SDS011;10067;53.092;8.800;2024-02-14T02:43:38;14.23;;;10.07;;
19814;SDS011;10067;53.092;8.800;2024-02-14T02:46:04;18.47;;;11.40;;
19814;SDS011;10067;53.092;8.800;2024-02-14T02:48:33;15.23;;;10.57;;
19814;SDS011;10067;53.092;8.800;2024-02-14T02:50:59;17.97;;;11.90;;
19814;SDS011;10067;53.092;8.800;2024-02-14T02:53:26;16.43;;;11.67;;
19814;SDS011;10067;53.092;8.800;2024-02-14T02:55:52;16.10;;;11.80;;
19814;SDS011;10067;53.092;8.800;2024-02-14T02:58:20;18.33;;;12.27;;
19814;SDS011;10067;53.092;8.800;2024-02-14T03:00:47;19.63;;;12.73;;
19814;SDS011;10067;53.092;8.800;2024-02-14T03:03:14;18.83;;;13.13;;
19814;SDS011;10067;53.092;8.800;2024-02-14T03:05:41;22.10;;;14.47;;
19814;SDS011;10067;53.092;8.800;2024-02-14T03:08:09;22.27;;;13.53;;
19814;SDS011;10067;53.092;8.800;2024-02-14T03:10:38;22.23;;;14.03;;
19814;SDS011;10067;53.092;8.800;2024-02-14T03:13:05;27.83;;;15.03;;
19814;SDS011;10067;53.092;8.800;2024-02-14T03:15:34;23.13;;;14.87;;
19814;SDS011;10067;53.092;8.800;2024-02-14T03:18:01;22.10;;;15.10;;
19814;SDS011;10067;53.092;8.800;2024-02-14T03:20:30;25.37;;;14.93;;
19814;SDS011;10067;53.092;8.800;2024-02-14T03:22:57;24.67;;;15.53;;
19814;SDS011;10067;53.092;8.800;2024-02-14T03:25:23;20.87;;;15.10;;
19814;SDS011;10067;53.092;8.800;2024-02-14T03:27:49;26.80;;;15.87;;
19814;SDS011;10067;53.092;8.800;2024-02-14T03:30:18;24.43;;;15.53;;
19814;SDS011;10067;53.092;8.800;2024-02-14T03:32:46;23.80;;;16.73;;
19814;SDS011;10067;53.092;8.800;2024-02-14T03:35:13;24.57;;;16.80;;
19814;SDS011;10067;53.092;8.800;2024-02-14T03:37:40;26.73;;;17.17;;
19814;SDS011;10067;53.092;8.800;2024-02-14T03:40:07;26.87;;;16.80;;
19814;SDS011;10067;53.092;8.800;2024-02-14T03:42:34;27.90;;;17.93;;
19814;SDS011;10067;53.092;8.800;2024-02-14T03:45:01;31.93;;;18.80;;
19814;SDS011;10067;53.092;8.800;2024-02-14T03:47:30;25.80;;;18.60;;
19814;SDS011;10067;53.092;8.800;2024-02-14T03:49:59;27.40;;;18.33;;
19814;SDS011;10067;53.092;8.800;2024-02-14T03:52:25;21.87;;;17.83;;
19814;SDS011;10067;53.092;8.800;2024-02-14T03:54:52;27.00;;;18.57;;
19814;SDS011;10067;53.092;8.800;2024-02-14T03:57:18;29.50;;;19.27;;
19814;SDS011;10067;53.092;8.800;2024-02-14T03:59:44;22.73;;;17.77;;
19814;SDS011;10067;53.092;8.800;2024-02-14T04:02:11;24.27;;;18.60;;
19814;SDS011;10067;53.092;8.800;2024-02-14T04:04:38;28.63;;;20.53;;
19814;SDS011;10067;53.092;8.800;2024-02-14T04:07:06;23.50;;;17.90;;
19814;SDS011;10067;53.092;8.800;2024-02-14T04:09:33;29.77;;;19.63;;
19814;SDS011;10067;53.092;8.800;2024-02-14T04:11:59;26.23;;;19.90;;
19814;SDS011;10067;53.092;8.800;2024-02-14T04:14:31;24.13;;;19.03;;
19814;SDS011;10067;53.092;8.800;2024-02-14T04:16:58;30.93;;;19.20;;
19814;SDS011;10067;53.092;8.800;2024-02-14T04:19:24;28.80;;;18.90;;
19814;SDS011;10067;53.092;8.800;2024-02-14T04:21:50;29.33;;;20.07;;
19814;SDS011;10067;53.092;8.800;2024-02-14T04:24:18;27.40;;;19.37;;
19814;SDS011;10067;53.092;8.800;2024-02-14T04:26:44;29.07;;;19.60;;
19814;SDS011;10067;53.092;8.800;2024-02-14T04:29:11;31.30;;;20.20;;
19814;SDS011;10067;53.092;8.800;2024-02-14T04:31:37;27.93;;;19.57;;
19814;SDS011;10067;53.092;8.800;2024-02-14T04:34:04;29.90;;;21.13;;
19814;SDS011;10067;53.092;8.800;2024-02-14T04:36:32;26.90;;;19.50;;
19814;SDS011;10067;53.092;8.800;2024-02-14T04:39:00;26.70;;;19.77;;
19814;SDS011;10067;53.092;8.800;2024-02-14T04:41:28;25.77;;;19.30;;
19814;SDS011;10067;53.092;8.800;2024-02-14T04:43:54;29.27;;;20.10;;
19814;SDS011;10067;53.092;8.800;2024-02-14T04:46:21;32.10;;;20.30;;
19814;SDS011;10067;53.092;8.800;2024-02-14T04:48:47;31.13;;;21.37;;
19814;SDS011;10067;53.092;8.800;2024-02-14T04:51:13;32.20;;;21.30;;
19814;SDS011;10067;53.092;8.800;2024-02-14T04:53:40;30.53;;;22.50;;
19814;SDS011;10067;53.092;8.800;2024-02-14T04:56:06;32.83;;;21.73;;
19814;SDS011;10067;53.092;8.800;2024-02-14T04:58:34;34.97;;;22.33;;
19814;SDS011;10067;53.092;8.800;2024-02-14T05:01:01;31.13;;;20.50;;
19814;SDS011;10067;53.092;8.800;2024-02-14T05:03:27;31.97;;;21.80;;
19814;SDS011;10067;53.092;8.800;2024-02-14T05:05:54;27.90;;;20.67;;
19814;SDS011;10067;53.092;8.800;2024-02-14T05:08:20;31.13;;;21.60;;
19814;SDS011;10067;53.092;8.800;2024-02-14T05:10:47;33.03;;;21.20;;
19814;SDS011;10067;53.092;8.800;2024-02-14T05:13:13;31.87;;;21.90;;
19814;SDS011;10067;53.092;8.800;2024-02-14T05:15:42;31.23;;;21.87;;
19814;SDS011;10067;53.092;8.800;2024-02-14T05:18:08;32.13;;;22.47;;
19814;SDS011;10067;53.092;8.800;2024-02-14T05:20:34;30.83;;;21.80;;
19814;SDS011;10067;53.092;8.800;2024-02-14T05:23:01;34.43;;;21.13;;
19814;SDS011;10067;53.092;8.800;2024-02-14T05:25:28;28.53;;;21.57;;
19814;SDS011;10067;53.092;8.800;2024-02-14T05:27:54;27.13;;;21.47;;
19814;SDS011;10067;53.092;8.800;2024-02-14T05:30:21;32.67;;;21.97;;
19814;SDS011;10067;53.092;8.800;2024-02-14T05:32:49;31.17;;;21.50;;
19814;SDS011;10067;53.092;8.800;2024-02-14T05:35:17;25.23;;;19.93;;
19814;SDS011;10067;53.092;8.800;2024-02-14T05:37:44;26.10;;;20.20;;
19814;SDS011;10067;53.092;8.800;2024-02-14T05:40:11;27.30;;;20.63;;
19814;SDS011;10067;53.092;8.800;2024-02-14T05:42:37;27.57;;;20.33;;
19814;SDS011;10067;53.092;8.800;2024-02-14T05:45:04;28.90;;;21.07;;
19814;SDS011;10067;53.092;8.800;2024-02-14T05:47:31;27.27;;;20.23;;
19814;SDS011;10067;53.092;8.800;2024-02-14T05:49:58;29.77;;;20.37;;
19814;SDS011;10067;53.092;8.800;2024-02-14T05:52:25;30.30;;;22.43;;
19814;SDS011;10067;53.092;8.800;2024-02-14T05:54:51;26.53;;;21.23;;
19814;SDS011;10067;53.092;8.800;2024-02-14T05:57:19;30.40;;;21.27;;
19814;SDS011;10067;53.092;8.800;2024-02-14T05:59:45;28.33;;;22.20;;
19814;SDS011;10067;53.092;8.800;2024-02-14T06:02:11;34.07;;;22.17;;
19814;SDS011;10067;53.092;8.800;2024-02-14T06:04:38;29.93;;;21.90;;
19814;SDS011;10067;53.092;8.800;2024-02-14T06:07:06;29.07;;;23.07;;
19814;SDS011;10067;53.092;8.800;2024-02-14T06:09:35;31.43;;;22.27;;
19814;SDS011;10067;53.092;8.800;2024-02-14T06:12:01;32.30;;;23.17;;
19814;SDS011;10067;53.092;8.800;2024-02-14T06:14:28;31.67;;;23.33;;
19814;SDS011;10067;53.092;8.800;2024-02-14T06:16:56;30.43;;;22.83;;
19814;SDS011;10067;53.092;8.800;2024-02-14T06:19:23;32.50;;;23.87;;
19814;SDS011;10067;53.092;8.800;2024-02-14T06:21:49;30.70;;;24.00;;
19814;SDS011;10067;53.092;8.800;2024-02-14T06:24:17;32.50;;;25.07;;
19814;SDS011;10067;53.092;8.800;2024-02-14T06:26:44;34.13;;;24.77;;
19814;SDS011;10067;53.092;8.800;2024-02-14T06:29:10;31.37;;;24.33;;
19814;SDS011;10067;53.092;8.800;2024-02-14T06:31:36;29.00;;;23.23;;
19814;SDS011;10067;53.092;8.800;2024-02-14T06:34:03;31.37;;;25.67;;
19814;SDS011;10067;53.092;8.800;2024-02-14T06:36:31;30.00;;;23.83;;
19814;SDS011;10067;53.092;8.800;2024-02-14T06:38:58;30.63;;;22.50;;
19814;SDS011;10067;53.092;8.800;2024-02-14T06:41:25;32.40;;;24.20;;
19814;SDS011;10067;53.092;8.800;2024-02-14T06:43:52;33.80;;;24.63;;
19814;SDS011;10067;53.092;8.800;2024-02-14T06:46:18;31.73;;;25.07;;
19814;SDS011;10067;53.092;8.800;2024-02-14T06:48:45;31.80;;;23.33;;
19814;SDS011;10067;53.092;8.800;2024-02-14T06:51:11;30.20;;;22.83;;
19814;SDS011;10067;53.092;8.800;2024-02-14T06:53:37;30.27;;;22.93;;
19814;SDS011;10067;53.092;8.800;2024-02-14T06:56:04;31.03;;;22.93;;
19814;SDS011;10067;53.092;8.800;2024-02-14T06:58:32;32.33;;;25.13;;
19814;SDS011;10067;53.092;8.800;2024-02-14T07:00:58;32.13;;;22.67;;
19814;SDS011;10067;53.092;8.800;2024-02-14T07:03:24;31.47;;;23.97;;
19814;SDS011;10067;53.092;8.800;2024-02-14T07:05:51;29.33;;;22.70;;
19814;SDS011;10067;53.092;8.800;2024-02-14T07:08:17;30.97;;;24.40;;
19814;SDS011;10067;53.092;8.800;2024-02-14T07:10:44;27.17;;;21.90;;
19814;SDS011;10067;53.092;8.800;2024-02-14T07:13:10;29.27;;;22.27;;
19814;SDS011;10067;53.092;8.800;2024-02-14T07:15:38;29.30;;;22.57;;
19814;SDS011;10067;53.092;8.800;2024-02-14T07:18:04;28.47;;;21.87;;
19814;SDS011;10067;53.092;8.800;2024-02-14T07:20:33;27.73;;;21.67;;
19814;SDS011;10067;53.092;8.800;2024-02-14T07:23:00;28.80;;;20.73;;
19814;SDS011;10067;53.092;8.800;2024-02-14T07:25:26;27.20;;;20.23;;
19814;SDS011;10067;53.092;8.800;2024-02-14T07:27:53;28.53;;;20.60;;
19814;SDS011;10067;53.092;8.800;2024-02-14T07:30:19;26.40;;;19.27;;
19814;SDS011;10067;53.092;8.800;2024-02-14T07:32:47;27.02;;;20.25;;
19814;SDS011;10067;53.092;8.800;2024-02-14T07:35:13;22.65;;;18.02;;
19814;SDS011;10067;53.092;8.800;2024-02-14T07:37:40;25.63;;;19.63;;
19814;SDS011;10067;53.092;8.800;2024-02-14T07:40:07;25.30;;;19.50;;
19814;SDS011;10067;53.092;8.800;2024-02-14T07:42:34;25.17;;;18.17;;
19814;SDS011;10067;53.092;8.800;2024-02-14T07:45:00;22.67;;;17.58;;
19814;SDS011;10067;53.092;8.800;2024-02-14T07:47:28;24.13;;;18.42;;
19814;SDS011;10067;53.092;8.800;2024-02-14T07:49:56;23.48;;;18.48;;
19814;SDS011;10067;53.092;8.800;2024-02-14T07:52:22;22.33;;;17.63;;
19814;SDS011;10067;53.092;8.800;2024-02-14T07:54:51;24.77;;;17.77;;
19814;SDS011;10067;53.092;8.800;2024-02-14T07:57:17;22.58;;;17.85;;
19814;SDS011;10067;53.092;8.800;2024-02-14T07:59:44;19.57;;;15.27;;
19814;SDS011;10067;53.092;8.800;2024-02-14T08:02:10;22.50;;;16.65;;
19814;SDS011;10067;53.092;8.800;2024-02-14T08:04:37;23.15;;;16.48;;
19814;SDS011;10067;53.092;8.800;2024-02-14T08:23:39;13.27;;;11.88;;
19814;SDS011;10067;53.092;8.800;2024-02-14T08:26:06;13.50;;;11.25;;
19814;SDS011;10067;53.092;8.800;2024-02-14T08:28:35;13.73;;;11.43;;
19814;SDS011;10067;53.092;8.800;2024-02-14T08:31:01;12.25;;;10.95;;
19814;SDS011;10067;53.092;8.800;2024-02-14T08:33:28;12.15;;;10.32;;
19814;SDS011;10067;53.092;8.800;2024-02-14T08:35:54;16.33;;;10.68;;
19814;SDS011;10067;53.092;8.800;2024-02-14T08:38:22;15.32;;;11.02;;
19814;SDS011;10067;53.092;8.800;2024-02-14T08:40:50;11.57;;;9.88;;
19814;SDS011;10067;53.092;8.800;2024-02-14T08:43:16;11.20;;;9.25;;
19814;SDS011;10067;53.092;8.800;2024-02-14T08:45:43;12.55;;;10.85;;
19814;SDS011;10067;53.092;8.800;2024-02-14T08:48:09;10.30;;;9.05;;
19814;SDS011;10067;53.092;8.800;2024-02-14T08:50:36;11.27;;;9.95;;
19814;SDS011;10067;53.092;8.800;2024-02-14T08:53:02;10.57;;;9.48;;
19814;SDS011;10067;53.092;8.800;2024-02-14T08:55:28;10.15;;;8.95;;
19814;SDS011;10067;53.092;8.800;2024-02-14T08:57:59;11.23;;;10.02;;
19814;SDS011;10067;53.092;8.800;2024-02-14T09:00:25;10.88;;;9.77;;
19814;SDS011;10067;53.092;8.800;2024-02-14T09:02:52;11.13;;;9.82;;
19814;SDS011;10067;53.092;8.800;2024-02-14T09:05:18;11.80;;;10.30;;
19814;SDS011;10067;53.092;8.800;2024-02-14T09:07:44;12.20;;;10.90;;
19814;SDS011;10067;53.092;8.800;2024-02-14T09:10:11;13.00;;;11.60;;
19814;SDS011;10067;53.092;8.800;2024-02-14T09:12:37;12.75;;;11.25;;
19814;SDS011;10067;53.092;8.800;2024-02-14T09:15:08;14.25;;;11.93;;
19814;SDS011;10067;53.092;8.800;2024-02-14T09:17:34;13.43;;;11.98;;
19814;SDS011;10067;53.092;8.800;2024-02-14T09:20:00;14.52;;;12.70;;
19814;SDS011;10067;53.092;8.800;2024-02-14T09:22:27;14.52;;;12.80;;
19814;SDS011;10067;53.092;8.800;2024-02-14T09:24:54;14.77;;;12.32;;
19814;SDS011;10067;53.092;8.800;2024-02-14T09:27:21;15.18;;;12.55;;
19814;SDS011;10067;53.092;8.800;2024-02-14T09:29:48;14.57;;;12.52;;
19814;SDS011;10067;53.092;8.800;2024-02-14T09:32:16;18.70;;;14.20;;
19814;SDS011;10067;53.092;8.800;2024-02-14T09:34:42;15.43;;;12.75;;
19814;SDS011;10067;53.092;8.800;2024-02-14T09:37:10;18.33;;;13.68;;
19814;SDS011;10067;53.092;8.800;2024-02-14T09:39:36;15.82;;;14.00;;
19814;SDS011;10067;53.092;8.800;2024-02-14T09:42:03;16.67;;;13.75;;
19814;SDS011;10067;53.092;8.800;2024-02-14T09:44:32;18.33;;;14.07;;
19814;SDS011;10067;53.092;8.800;2024-02-14T09:46:59;16.33;;;13.75;;
19814;SDS011;10067;53.092;8.800;2024-02-14T09:49:27;17.30;;;13.60;;
19814;SDS011;10067;53.092;8.800;2024-02-14T09:51:54;16.98;;;14.75;;
19814;SDS011;10067;53.092;8.800;2024-02-14T09:54:21;18.75;;;14.48;;
19814;SDS011;10067;53.092;8.800;2024-02-14T09:56:48;23.92;;;15.60;;
19814;SDS011;10067;53.092;8.800;2024-02-14T09:59:18;20.20;;;14.95;;
19814;SDS011;10067;53.092;8.800;2024-02-14T10:01:45;18.83;;;15.32;;
19814;SDS011;10067;53.092;8.800;2024-02-14T10:10:19;18.48;;;15.73;;
19814;SDS011;10067;53.092;8.800;2024-02-14T10:12:46;21.25;;;15.93;;
19814;SDS011;10067;53.092;8.800;2024-02-14T10:15:13;19.35;;;15.60;;
19814;SDS011;10067;53.092;8.800;2024-02-14T10:17:39;19.65;;;15.35;;
19814;SDS011;10067;53.092;8.800;2024-02-14T10:20:07;19.83;;;14.95;;
19814;SDS011;10067;53.092;8.800;2024-02-14T10:22:33;17.75;;;14.40;;
19814;SDS011;10067;53.092;8.800;2024-02-14T10:25:00;16.10;;;13.30;;
19814;SDS011;10067;53.092;8.800;2024-02-14T10:27:28;16.38;;;14.23;;
19814;SDS011;10067;53.092;8.800;2024-02-14T10:29:56;17.65;;;14.38;;
19814;SDS011;10067;53.092;8.800;2024-02-14T10:32:22;19.90;;;15.20;;
19814;SDS011;10067;53.092;8.800;2024-02-14T10:34:49;16.70;;;13.75;;
19814;SDS011;10067;53.092;8.800;2024-02-14T10:37:15;18.55;;;14.48;;
19814;SDS011;10067;53.092;8.800;2024-02-14T10:39:44;17.33;;;13.38;;
19814;SDS011;10067;53.092;8.800;2024-02-14T10:42:12;23.65;;;14.23;;
19814;SDS011;10067;53.092;8.800;2024-02-14T10:44:39;18.58;;;14.10;;
19814;SDS011;10067;53.092;8.800;2024-02-14T10:47:06;17.88;;;14.10;;
19814;SDS011;10067;53.092;8.800;2024-02-14T10:49:35;17.38;;;13.80;;
19814;SDS011;10067;53.092;8.800;2024-02-14T10:52:03;18.35;;;14.40;;
19814;SDS011;10067;53.092;8.800;2024-02-14T10:54:32;18.48;;;14.10;;
19814;SDS011;10067;53.092;8.800;2024-02-14T10:56:59;20.30;;;14.75;;
19814;SDS011;10067;53.092;8.800;2024-02-14T10:59:27;17.20;;;13.85;;
19814;SDS011;10067;53.092;8.800;2024-02-14T11:01:56;19.27;;;14.35;;
19814;SDS011;10067;53.092;8.800;2024-02-14T11:04:23;17.33;;;14.18;;
19814;SDS011;10067;53.092;8.800;2024-02-14T11:06:51;19.02;;;14.88;;
19814;SDS011;10067;53.092;8.800;2024-02-14T11:09:19;18.70;;;14.48;;
19814;SDS011;10067;53.092;8.800;2024-02-14T11:11:45;17.10;;;14.05;;
19814;SDS011;10067;53.092;8.800;2024-02-14T11:14:14;21.33;;;14.60;;
19814;SDS011;10067;53.092;8.800;2024-02-14T11:16:41;16.90;;;14.10;;
19814;SDS011;10067;53.092;8.800;2024-02-14T11:19:09;20.05;;;14.98;;
19814;SDS011;10067;53.092;8.800;2024-02-14T11:21:36;21.67;;;15.60;;
19814;SDS011;10067;53.092;8.800;2024-02-14T11:24:07;20.23;;;14.23;;
19814;SDS011;10067;53.092;8.800;2024-02-14T11:26:37;19.05;;;14.88;;
19814;SDS011;10067;53.092;8.800;2024-02-14T11:29:04;20.90;;;16.08;;
19814;SDS011;10067;53.092;8.800;2024-02-14T11:31:33;24.13;;;16.90;;
19814;SDS011;10067;53.092;8.800;2024-02-14T11:34:03;23.33;;;17.17;;
19814;SDS011;10067;53.092;8.800;2024-02-14T11:36:32;22.65;;;18.45;;
19814;SDS011;10067;53.092;8.800;2024-02-14T11:39:01;19.33;;;15.65;;
19814;SDS011;10067;53.092;8.800;2024-02-14T11:41:28;22.67;;;17.58;;
19814;SDS011;10067;53.092;8.800;2024-02-14T11:43:54;18.80;;;13.85;;
19814;SDS011;10067;53.092;8.800;2024-02-14T11:46:20;17.88;;;13.77;;
19814;SDS011;10067;53.092;8.800;2024-02-14T11:48:47;17.52;;;14.32;;
19814;SDS011;10067;53.092;8.800;2024-02-14T11:51:15;16.00;;;12.75;;
19814;SDS011;10067;53.092;8.800;2024-02-14T11:53:42;15.77;;;12.52;;
19814;SDS011;10067;53.092;8.800;2024-02-14T11:56:09;16.73;;;13.30;;
19814;SDS011;10067;53.092;8.800;2024-02-14T11:58:35;16.27;;;12.38;;
19814;SDS011;10067;53.092;8.800;2024-02-14T12:01:03;15.80;;;12.52;;
19814;SDS011;10067;53.092;8.800;2024-02-14T12:03:30;16.95;;;12.63;;
19814;SDS011;10067;53.092;8.800;2024-02-14T12:05:57;14.85;;;12.05;;
19814;SDS011;10067;53.092;8.800;2024-02-14T12:08:23;16.05;;;12.45;;
19814;SDS011;10067;53.092;8.800;2024-02-14T12:10:51;14.25;;;12.52;;
19814;SDS011;10067;53.092;8.800;2024-02-14T12:13:19;13.60;;;12.05;;
19814;SDS011;10067;53.092;8.800;2024-02-14T12:15:46;13.07;;;11.68;;
19814;SDS011;10067;53.092;8.800;2024-02-14T12:18:13;13.73;;;11.25;;
19814;SDS011;10067;53.092;8.800;2024-02-14T12:20:40;11.35;;;10.00;;
19814;SDS011;10067;53.092;8.800;2024-02-14T12:23:07;12.32;;;10.10;;
19814;SDS011;10067;53.092;8.800;2024-02-14T12:25:33;11.32;;;9.73;;
19814;SDS011;10067;53.092;8.800;2024-02-14T12:28:01;11.77;;;8.77;;
19814;SDS011;10067;53.092;8.800;2024-02-14T12:30:42;9.35;;;7.97;;
19814;SDS011;10067;53.092;8.800;2024-02-14T12:33:10;9.25;;;8.02;;
19814;SDS011;10067;53.092;8.800;2024-02-14T12:35:36;8.82;;;7.90;;
19814;SDS011;10067;53.092;8.800;2024-02-14T12:38:07;9.82;;;8.20;;
19814;SDS011;10067;53.092;8.800;2024-02-14T12:40:34;7.55;;;6.75;;
19814;SDS011;10067;53.092;8.800;2024-02-14T12:43:02;8.43;;;7.50;;
19814;SDS011;10067;53.092;8.800;2024-02-14T12:45:30;10.48;;;8.07;;
19814;SDS011;10067;53.092;8.800;2024-02-14T12:47:57;8.75;;;7.53;;
19814;SDS011;10067;53.092;8.800;2024-02-14T12:50:24;11.63;;;8.45;;
19814;SDS011;10067;53.092;8.800;2024-02-14T12:52:50;10.85;;;7.47;;
19814;SDS011;10067;53.092;8.800;2024-02-14T12:55:17;10.80;;;7.85;;
19814;SDS011;10067;53.092;8.800;2024-02-14T12:57:44;11.55;;;8.93;;
19814;SDS011;10067;53.092;8.800;2024-02-14T13:00:12;10.60;;;8.65;;
19814;SDS011;10067;53.092;8.800;2024-02-14T13:02:41;11.25;;;9.15;;
19814;SDS011;10067;53.092;8.800;2024-02-14T13:05:08;11.32;;;9.18;;
19814;SDS011;10067;53.092;8.800;2024-02-14T13:07:34;10.43;;;9.20;;
19814;SDS011;10067;53.092;8.800;2024-02-14T13:10:01;8.85;;;7.95;;
19814;SDS011;10067;53.092;8.800;2024-02-14T13:12:28;9.95;;;8.95;;
19814;SDS011;10067;53.092;8.800;2024-02-14T13:14:54;9.65;;;8.75;;
19814;SDS011;10067;53.092;8.800;2024-02-14T13:17:22;10.32;;;8.77;;
19814;SDS011;10067;53.092;8.800;2024-02-14T13:19:50;12.23;;;9.13;;
19814;SDS011;10067;53.092;8.800;2024-02-14T13:22:18;18.35;;;9.45;;
19814;SDS011;10067;53.092;8.800;2024-02-14T13:24:44;10.23;;;9.23;;
19814;SDS011;10067;53.092;8.800;2024-02-14T13:27:11;14.75;;;9.18;;
19814;SDS011;10067;53.092;8.800;2024-02-14T13:29:37;10.88;;;8.73;;
19814;SDS011;10067;53.092;8.800;2024-02-14T13:32:04;10.85;;;9.23;;
19814;SDS011;10067;53.092;8.800;2024-02-14T13:34:34;8.80;;;7.93;;
19814;SDS011;10067;53.092;8.800;2024-02-14T13:37:00;9.98;;;8.63;;
19814;SDS011;10067;53.092;8.800;2024-02-14T13:39:27;8.77;;;7.75;;
19814;SDS011;10067;53.092;8.800;2024-02-14T13:41:56;8.70;;;7.90;;
19814;SDS011;10067;53.092;8.800;2024-02-14T13:44:25;13.82;;;8.75;;
19814;SDS011;10067;53.092;8.800;2024-02-14T13:46:51;9.65;;;8.65;;
19814;SDS011;10067;53.092;8.800;2024-02-14T13:49:17;8.90;;;7.95;;
19814;SDS011;10067;53.092;8.800;2024-02-14T13:51:48;10.10;;;9.10;;
19814;SDS011;10067;53.092;8.800;2024-02-14T13:54:15;11.20;;;8.38;;
19814;SDS011;10067;53.092;8.800;2024-02-14T13:56:41;9.93;;;8.93;;
19814;SDS011;10067;53.092;8.800;2024-02-14T13:59:08;13.50;;;9.25;;
19814;SDS011;10067;53.092;8.800;2024-02-14T14:01:34;9.38;;;8.48;;
19814;SDS011;10067;53.092;8.800;2024-02-14T14:04:02;9.88;;;8.43;;
19814;SDS011;10067;53.092;8.800;2024-02-14T14:06:28;10.77;;;8.80;;
19814;SDS011;10067;53.092;8.800;2024-02-14T14:08:56;9.85;;;8.43;;
19814;SDS011;10067;53.092;8.800;2024-02-14T14:11:22;11.55;;;8.15;;
19814;SDS011;10067;53.092;8.800;2024-02-14T14:13:49;9.82;;;8.60;;
19814;SDS011;10067;53.092;8.800;2024-02-14T14:16:15;11.15;;;9.38;;
19814;SDS011;10067;53.092;8.800;2024-02-14T14:18:42;10.82;;;8.68;;
19814;SDS011;10067;53.092;8.800;2024-02-14T14:21:08;10.35;;;9.20;;
19814;SDS011;10067;53.092;8.800;2024-02-14T14:23:35;11.38;;;9.13;;
19814;SDS011;10067;53.092;8.800;2024-02-14T14:26:03;9.82;;;8.40;;
19814;SDS011;10067;53.092;8.800;2024-02-14T14:28:31;9.98;;;8.93;;
19814;SDS011;10067;53.092;8.800;2024-02-14T14:30:57;12.40;;;8.68;;
19814;SDS011;10067;53.092;8.800;2024-02-14T14:33:25;11.00;;;8.93;;
19814;SDS011;10067;53.092;8.800;2024-02-14T14:35:52;10.77;;;9.68;;
19814;SDS011;10067;53.092;8.800;2024-02-14T14:38:18;9.70;;;8.70;;
19814;SDS011;10067;53.092;8.800;2024-02-14T14:40:45;9.40;;;8.35;;
19814;SDS011;10067;53.092;8.800;2024-02-14T14:43:12;10.45;;;9.38;;
19814;SDS011;10067;53.092;8.800;2024-02-14T14:45:39;13.82;;;8.98;;
19814;SDS011;10067;53.092;8.800;2024-02-14T14:48:07;9.23;;;8.20;;
19814;SDS011;10067;53.092;8.800;2024-02-14T14:50:34;12.70;;;9.07;;